createdAt,value
2022-11-03T00:00:00.387Z,14.98
2022-11-03T00:10:01.998Z,14.38
2022-11-03T00:20:03.864Z,14.25
2022-11-03T00:30:07.013Z,15.00
2022-11-03T00:50:12.752Z,13.20
2022-11-03T01:00:15.898Z,15.15
2022-11-03T01:10:22.902Z,13.43
2022-11-03T01:20:25.552Z,13.52
2022-11-03T01:30:27.176Z,14.63
2022-11-03T01:40:30.908Z,14.02
2022-11-03T01:50:32.689Z,11.13
2022-11-03T02:11:43.810Z,11.77
2022-11-03T02:21:55.636Z,11.57
2022-11-03T02:32:08.276Z,11.50
2022-11-03T02:42:12.747Z,12.32
2022-11-03T02:52:36.014Z,12.30
2022-11-03T03:02:53.140Z,13.67
2022-11-03T03:12:58.877Z,11.00
2022-11-03T03:23:19.225Z,11.80
2022-11-03T03:43:31.560Z,12.00
2022-11-03T03:53:33.218Z,13.80
2022-11-03T04:03:34.928Z,14.43
2022-11-03T04:13:56.264Z,14.05
2022-11-03T04:24:00.314Z,12.43
2022-11-03T04:34:10.367Z,11.85
2022-11-03T04:44:16.818Z,12.80
2022-11-03T04:54:23.609Z,12.68
2022-11-03T05:04:25.439Z,13.13
2022-11-03T05:14:37.719Z,13.60
2022-11-03T05:24:39.415Z,13.10
2022-11-03T05:34:43.228Z,15.18
2022-11-03T05:44:45.708Z,15.38
2022-11-03T05:54:47.671Z,15.23
2022-11-03T06:04:54.560Z,14.48
2022-11-03T06:14:56.596Z,15.65
2022-11-03T06:25:12.097Z,13.73
2022-11-03T06:35:14.960Z,13.77
2022-11-03T06:45:24.919Z,12.33
2022-11-03T06:55:31.232Z,12.63
2022-11-03T07:05:33.415Z,10.93
2022-11-03T07:15:40.240Z,8.55
2022-11-03T07:25:41.959Z,10.63
2022-11-03T07:36:13.859Z,10.23
2022-11-03T07:46:17.725Z,10.73
2022-11-03T07:56:21.063Z,11.83
2022-11-03T08:06:23.865Z,14.02
2022-11-03T08:16:25.915Z,17.30
2022-11-03T08:26:27.850Z,17.93
2022-11-03T08:36:30.580Z,19.35
2022-11-03T08:46:33.364Z,19.98
2022-11-03T08:56:35.047Z,20.27
2022-11-03T09:06:37.769Z,20.98
2022-11-03T09:16:40.941Z,22.38
2022-11-03T09:26:42.777Z,20.02
2022-11-03T09:36:48.077Z,21.60
2022-11-03T09:46:58.411Z,21.75
2022-11-03T09:57:12.140Z,22.13
2022-11-03T10:07:14.254Z,22.35
2022-11-03T10:17:21.848Z,23.63
2022-11-03T10:27:25.586Z,21.20
2022-11-03T10:37:28.660Z,21.75
2022-11-03T10:57:38.664Z,20.77
2022-11-03T11:07:43.714Z,21.37
2022-11-03T11:17:46.837Z,23.85
2022-11-03T11:38:37.921Z,22.70
2022-11-03T11:48:40.172Z,25.20
2022-11-03T11:58:48.881Z,25.73
2022-11-03T12:08:51.474Z,23.58
2022-11-03T12:18:54.270Z,24.08
2022-11-03T12:28:57.344Z,27.05
2022-11-03T12:38:59.402Z,26.98
2022-11-03T12:49:05.149Z,28.37
2022-11-03T12:59:13.101Z,25.90
2022-11-03T13:09:14.892Z,24.65
2022-11-03T13:19:18.543Z,25.27
2022-11-03T13:29:23.288Z,21.73
2022-11-03T13:39:24.948Z,23.10
2022-11-03T13:59:49.839Z,23.63
2022-11-03T14:09:54.345Z,22.23
2022-11-03T14:20:03.688Z,20.70
2022-11-03T14:30:06.777Z,20.10
2022-11-03T14:40:30.231Z,20.57
2022-11-03T14:50:32.778Z,20.45
2022-11-03T15:00:35.418Z,26.03
2022-11-03T15:10:39.523Z,23.03
2022-11-03T15:20:42.705Z,24.45
2022-11-03T15:30:50.637Z,21.55
2022-11-03T15:40:53.786Z,24.40
2022-11-03T15:50:55.486Z,22.88
2022-11-03T16:00:57.545Z,25.48
2022-11-03T16:10:59.560Z,27.23
2022-11-03T16:21:11.483Z,28.40
2022-11-03T16:31:14.076Z,31.23
2022-11-03T16:41:16.875Z,34.47
2022-11-03T16:51:20.731Z,34.17
2022-11-03T17:01:23.171Z,35.65
2022-11-03T17:11:36.339Z,35.00
2022-11-03T17:21:40.815Z,32.65
2022-11-03T17:31:49.446Z,35.13
2022-11-03T17:41:51.322Z,33.03
2022-11-03T17:51:54.001Z,31.88
2022-11-03T18:02:00.159Z,32.70
2022-11-03T18:12:20.471Z,33.50
2022-11-03T18:22:22.943Z,35.45
2022-11-03T18:32:24.842Z,35.70
2022-11-03T18:42:26.753Z,32.00
2022-11-03T18:52:29.079Z,32.92
2022-11-03T19:02:34.440Z,33.63
2022-11-03T19:12:39.142Z,33.42
2022-11-03T19:22:47.509Z,33.42
2022-11-03T19:32:53.416Z,32.25
2022-11-03T19:42:59.699Z,31.45
2022-11-03T19:53:03.458Z,30.05
2022-11-03T20:03:05.557Z,27.48
2022-11-03T20:13:12.844Z,27.55
2022-11-03T20:23:25.350Z,28.27
2022-11-03T20:33:30.680Z,26.97
2022-11-03T20:43:42.852Z,24.60
2022-11-03T20:53:48.061Z,25.55
2022-11-03T21:03:59.185Z,24.98
2022-11-03T21:14:08.737Z,23.55
2022-11-03T21:24:12.187Z,23.80
2022-11-03T21:34:15.152Z,23.33
2022-11-03T21:44:17.971Z,25.15
2022-11-03T21:54:19.850Z,21.90
2022-11-03T22:04:23.131Z,23.83
2022-11-03T22:14:50.511Z,20.77
2022-11-03T22:25:10.951Z,20.98
2022-11-03T22:35:30.869Z,22.23
2022-11-03T22:45:51.307Z,20.38
2022-11-03T22:55:53.413Z,21.38
2022-11-03T23:05:59.790Z,21.15
2022-11-03T23:16:10.242Z,21.17
2022-11-03T23:26:14.985Z,21.50
2022-11-03T23:36:17.794Z,21.95
2022-11-03T23:46:50.168Z,22.63
2022-11-03T23:57:11.545Z,20.38
